createdAt,value
2024-02-08T00:02:12.201Z,1.67
2024-02-08T00:04:39.145Z,1.88
2024-02-08T00:07:06.205Z,1.65
2024-02-08T00:09:33.101Z,2.10
2024-02-08T00:12:00.192Z,2.17
2024-02-08T00:14:26.956Z,1.40
2024-02-08T00:16:54.102Z,1.80
2024-02-08T00:19:21.072Z,1.23
2024-02-08T00:21:48.251Z,1.70
2024-02-08T00:24:15.572Z,1.25
2024-02-08T00:26:42.896Z,1.30
2024-02-08T00:29:10.783Z,1.60
2024-02-08T00:31:37.703Z,1.40
2024-02-08T00:34:04.503Z,1.65
2024-02-08T00:36:32.230Z,1.35
2024-02-08T00:39:02.015Z,1.30
2024-02-08T00:41:28.797Z,1.42
2024-02-08T00:43:55.809Z,1.20
2024-02-08T00:46:22.541Z,1.13
2024-02-08T00:48:52.105Z,1.38
2024-02-08T00:51:19.070Z,1.20
2024-02-08T00:53:45.846Z,1.27
2024-02-08T00:56:14.515Z,1.25
2024-02-08T00:58:41.537Z,1.27
2024-02-08T01:01:11.395Z,1.52
2024-02-08T01:03:38.292Z,1.00
2024-02-08T01:06:05.325Z,1.13
2024-02-08T01:08:34.681Z,1.15
2024-02-08T01:11:04.310Z,1.17
2024-02-08T01:13:33.049Z,1.08
2024-02-08T01:16:00.052Z,1.13
2024-02-08T01:18:28.031Z,1.10
2024-02-08T01:20:55.763Z,1.15
2024-02-08T01:23:24.192Z,1.50
2024-02-08T01:25:51.162Z,1.10
2024-02-08T01:28:18.068Z,1.50
2024-02-08T01:30:47.138Z,1.45
2024-02-08T01:33:14.334Z,1.00
2024-02-08T01:35:41.368Z,1.40
2024-02-08T01:38:09.406Z,1.45
2024-02-08T01:40:36.592Z,1.40
2024-02-08T01:43:06.217Z,1.45
2024-02-08T01:45:39.385Z,1.40
2024-02-08T01:48:17.630Z,1.63
2024-02-08T01:50:50.047Z,1.65
2024-02-08T01:53:21.830Z,1.70
2024-02-08T01:55:52.293Z,1.80
2024-02-08T01:58:23.733Z,1.42
2024-02-08T02:03:20.771Z,1.48
2024-02-08T02:05:48.191Z,1.20
2024-02-08T02:08:22.873Z,1.40
2024-02-08T02:11:07.506Z,1.40
2024-02-08T02:13:38.996Z,1.20
2024-02-08T02:16:06.327Z,1.30
2024-02-08T02:18:33.142Z,1.42
2024-02-08T02:21:00.279Z,1.15
2024-02-08T02:23:27.371Z,1.30
2024-02-08T02:25:55.208Z,1.60
2024-02-08T02:28:22.782Z,1.25
2024-02-08T02:30:51.785Z,1.27
2024-02-08T02:33:22.098Z,1.10
2024-02-08T02:35:51.571Z,1.00
2024-02-08T02:38:19.496Z,1.13
2024-02-08T02:40:47.969Z,1.20
2024-02-08T02:43:17.977Z,1.23
2024-02-08T02:45:45.080Z,1.10
2024-02-08T02:48:12.379Z,1.10
2024-02-08T02:50:43.608Z,1.35
2024-02-08T02:53:14.029Z,1.23
2024-02-08T02:55:42.471Z,1.30
2024-02-08T02:58:10.252Z,0.90
2024-02-08T03:00:38.010Z,1.10
2024-02-08T03:03:13.712Z,1.20
2024-02-08T03:06:03.487Z,0.90
2024-02-08T03:08:30.498Z,1.00
2024-02-08T03:10:57.602Z,0.90
2024-02-08T03:13:24.536Z,1.05
2024-02-08T03:15:53.981Z,1.02
2024-02-08T03:18:24.952Z,1.20
2024-02-08T03:23:18.921Z,1.10
2024-02-08T03:25:45.960Z,0.90
2024-02-08T03:28:13.563Z,1.10
2024-02-08T03:30:41.517Z,0.95
2024-02-08T03:33:20.179Z,1.17
2024-02-08T03:35:54.669Z,0.90
2024-02-08T03:38:21.782Z,0.95
2024-02-08T03:40:48.530Z,0.98
2024-02-08T03:43:17.344Z,0.90
2024-02-08T03:45:48.666Z,1.17
2024-02-08T03:48:15.936Z,1.10
2024-02-08T03:50:43.253Z,0.90
2024-02-08T03:53:14.989Z,1.10
2024-02-08T03:55:46.355Z,0.85
2024-02-08T03:58:15.786Z,1.20
2024-02-08T04:00:45.366Z,1.23
2024-02-08T04:03:15.945Z,1.27
2024-02-08T04:05:52.133Z,1.15
2024-02-08T04:08:28.113Z,1.15
2024-02-08T04:10:56.572Z,1.20
2024-02-08T04:13:42.792Z,1.45
2024-02-08T04:16:28.619Z,1.23
2024-02-08T04:19:14.025Z,1.27
2024-02-08T04:21:59.573Z,1.25
2024-02-08T04:24:48.059Z,1.20
2024-02-08T04:27:36.825Z,0.90
2024-02-08T04:30:21.979Z,1.10
2024-02-08T04:33:07.763Z,1.10
2024-02-08T04:35:53.404Z,1.75
2024-02-08T04:38:38.671Z,1.00
2024-02-08T04:41:23.987Z,1.00
2024-02-08T04:44:10.712Z,1.10
2024-02-08T04:46:56.417Z,1.17
2024-02-08T04:49:42.155Z,1.10
2024-02-08T04:52:28.559Z,0.90
2024-02-08T04:54:56.029Z,1.13
2024-02-08T04:57:26.016Z,1.00
2024-02-08T04:59:55.272Z,1.10
2024-02-08T05:02:22.436Z,1.10
2024-02-08T05:04:51.087Z,1.20
2024-02-08T05:07:18.275Z,1.00
2024-02-08T05:09:45.102Z,1.25
2024-02-08T05:12:13.527Z,1.00
2024-02-08T05:14:41.527Z,1.10
2024-02-08T05:17:11.998Z,1.25
2024-02-08T05:19:45.445Z,1.33
2024-02-08T05:22:14.752Z,1.25
2024-02-08T05:24:42.159Z,1.10
2024-02-08T05:27:09.271Z,1.50
2024-02-08T05:29:40.770Z,1.23
2024-02-08T05:32:07.659Z,1.23
2024-02-08T05:34:37.514Z,1.05
2024-02-08T05:37:04.677Z,1.30
2024-02-08T05:39:31.533Z,1.10
2024-02-08T05:41:59.388Z,1.13
2024-02-08T05:44:32.967Z,1.58
2024-02-08T05:47:11.176Z,1.40
2024-02-08T05:49:40.830Z,1.20
2024-02-08T05:52:09.743Z,1.20
2024-02-08T05:54:42.103Z,1.00
2024-02-08T05:57:13.135Z,1.25
2024-02-08T05:59:41.289Z,4.05
2024-02-08T06:02:16.664Z,3.05
2024-02-08T06:05:02.339Z,2.47
2024-02-08T06:07:32.554Z,2.95
2024-02-08T06:10:16.500Z,2.13
2024-02-08T06:12:51.916Z,1.58
2024-02-08T06:15:35.082Z,2.20
2024-02-08T06:18:08.496Z,2.22
2024-02-08T06:20:41.567Z,2.03
2024-02-08T06:23:19.159Z,1.70
2024-02-08T06:26:10.199Z,1.58
2024-02-08T06:28:39.517Z,2.22
2024-02-08T06:31:09.806Z,2.05
2024-02-08T06:33:55.294Z,2.10
2024-02-08T06:36:24.369Z,2.17
2024-02-08T06:38:54.916Z,3.10
2024-02-08T06:41:51.336Z,3.38
2024-02-08T06:44:39.394Z,5.75
2024-02-08T06:47:25.377Z,7.47
2024-02-08T06:50:11.486Z,5.70
2024-02-08T06:52:56.848Z,3.95
2024-02-08T06:55:42.217Z,4.03
2024-02-08T06:58:28.092Z,3.85
2024-02-08T07:01:13.419Z,3.95
2024-02-08T07:03:59.703Z,3.80
2024-02-08T07:06:45.342Z,4.65
2024-02-08T07:09:32.134Z,4.60
2024-02-08T07:12:17.536Z,3.80
2024-02-08T07:15:05.971Z,2.65
2024-02-08T07:17:51.099Z,2.45
2024-02-08T07:20:39.408Z,2.60
2024-02-08T07:23:24.796Z,1.90
2024-02-08T07:26:11.141Z,2.40
2024-02-08T07:29:00.243Z,1.77
2024-02-08T07:31:45.806Z,2.22
2024-02-08T07:34:31.272Z,1.63
2024-02-08T07:37:18.008Z,1.80
2024-02-08T07:39:55.214Z,1.90
2024-02-08T07:42:31.199Z,3.00
2024-02-08T07:44:59.062Z,2.88
2024-02-08T07:47:26.540Z,2.30
2024-02-08T07:49:59.642Z,2.95
2024-02-08T07:52:27.070Z,3.00
2024-02-08T07:55:13.975Z,3.03
2024-02-08T07:57:52.312Z,2.90
2024-02-08T08:00:36.466Z,3.28
2024-02-08T08:03:10.271Z,2.63
2024-02-08T08:05:43.261Z,3.35
2024-02-08T08:08:26.913Z,2.78
2024-02-08T08:13:51.082Z,3.88
2024-02-08T08:16:30.622Z,4.45
2024-02-08T08:19:11.780Z,4.78
2024-02-08T08:21:59.477Z,5.75
2024-02-08T08:24:29.581Z,5.78
2024-02-08T08:27:27.735Z,5.13
2024-02-08T08:34:23.067Z,3.92
2024-02-08T08:37:04.119Z,3.70
2024-02-08T08:40:03.820Z,3.17
2024-02-08T08:42:30.825Z,2.22
2024-02-08T08:45:01.543Z,2.60
2024-02-08T08:47:29.762Z,2.20
2024-02-08T08:49:57.070Z,2.33
2024-02-08T08:52:27.396Z,1.98
2024-02-08T08:55:18.826Z,1.80
2024-02-08T08:57:55.609Z,2.08
2024-02-08T09:00:33.630Z,1.77
2024-02-08T09:03:11.962Z,1.73
2024-02-08T09:05:45.466Z,2.00
2024-02-08T09:08:24.019Z,2.00
2024-02-08T09:10:51.133Z,2.00
2024-02-08T09:13:20.045Z,1.98
2024-02-08T09:15:49.796Z,1.73
2024-02-08T09:18:17.273Z,1.45
2024-02-08T09:20:44.762Z,1.85
2024-02-08T09:23:17.796Z,2.42
2024-02-08T09:25:48.721Z,2.30
2024-02-08T09:28:26.509Z,1.95
2024-02-08T09:31:14.264Z,2.20
2024-02-08T09:33:49.081Z,1.90
2024-02-08T09:36:16.716Z,1.90
2024-02-08T09:38:46.068Z,2.10
2024-02-08T09:41:25.906Z,1.90
2024-02-08T09:44:09.790Z,2.00
2024-02-08T09:46:38.615Z,2.60
2024-02-08T09:49:17.162Z,2.05
2024-02-08T09:51:55.642Z,2.03
2024-02-08T09:54:33.898Z,2.78
2024-02-08T09:57:34.266Z,2.92
2024-02-08T10:00:04.749Z,2.40
2024-02-08T10:02:37.319Z,3.03
2024-02-08T10:05:42.247Z,2.67
2024-02-08T10:08:13.147Z,3.78
2024-02-08T10:11:00.186Z,5.80
2024-02-08T10:13:53.566Z,2.60
2024-02-08T10:19:06.806Z,2.60
2024-02-08T10:21:37.790Z,2.47
2024-02-08T10:24:26.710Z,2.40
2024-02-08T10:27:00.609Z,3.70
2024-02-08T10:29:33.941Z,3.55
2024-02-08T10:32:01.631Z,3.47
2024-02-08T10:34:35.411Z,3.58
2024-02-08T10:37:09.112Z,2.72
2024-02-08T10:39:59.696Z,3.88
2024-02-08T10:42:31.556Z,3.05
2024-02-08T10:45:09.914Z,2.53
2024-02-08T10:47:43.606Z,3.45
2024-02-08T10:50:21.904Z,4.03
2024-02-08T10:52:53.532Z,4.80
2024-02-08T10:55:32.302Z,2.90
2024-02-08T10:58:22.192Z,3.15
2024-02-08T11:00:50.340Z,1.60
2024-02-08T11:03:52.039Z,2.30
2024-02-08T11:09:21.214Z,2.10
2024-02-08T11:12:01.041Z,2.08
2024-02-08T11:15:15.082Z,3.33
2024-02-08T11:17:51.494Z,4.38
2024-02-08T11:20:44.192Z,4.05
2024-02-08T11:23:24.921Z,3.20
2024-02-08T11:25:58.127Z,3.58
2024-02-08T11:28:29.712Z,4.65
2024-02-08T11:30:56.909Z,5.13
2024-02-08T11:33:34.548Z,4.80
2024-02-08T11:36:14.650Z,5.30
2024-02-08T11:38:57.182Z,4.80
2024-02-08T11:41:29.293Z,6.80
2024-02-08T11:44:05.249Z,5.18
2024-02-08T11:46:47.944Z,5.70
2024-02-08T11:49:26.292Z,5.70
2024-02-08T11:51:54.172Z,5.25
2024-02-08T11:54:28.898Z,6.63
2024-02-08T11:57:07.962Z,6.30
2024-02-08T11:59:39.820Z,6.70
2024-02-08T12:02:17.679Z,5.80
2024-02-08T12:04:45.041Z,6.88
2024-02-08T12:07:22.013Z,7.57
2024-02-08T12:10:01.854Z,6.28
2024-02-08T12:12:35.128Z,7.95
2024-02-08T12:15:03.160Z,6.72
2024-02-08T12:17:30.065Z,7.28
2024-02-08T12:20:04.215Z,6.13
2024-02-08T12:22:31.516Z,7.00
2024-02-08T12:25:02.063Z,8.32
2024-02-08T12:27:32.470Z,6.97
2024-02-08T12:30:00.007Z,7.05
2024-02-08T12:32:32.837Z,7.57
2024-02-08T12:35:15.251Z,6.53
2024-02-08T12:37:44.784Z,8.25
2024-02-08T12:40:17.479Z,7.10
2024-02-08T12:42:45.417Z,6.85
2024-02-08T12:45:16.948Z,7.05
2024-02-08T12:47:51.349Z,6.60
2024-02-08T12:50:25.177Z,6.93
2024-02-08T12:52:56.488Z,8.80
2024-02-08T12:55:32.739Z,7.22
2024-02-08T12:58:06.089Z,12.27
2024-02-08T13:00:36.905Z,11.50
2024-02-08T13:03:08.578Z,12.30
2024-02-08T13:05:43.205Z,7.70
2024-02-08T13:08:11.652Z,8.43
2024-02-08T13:10:41.076Z,7.28
2024-02-08T13:13:24.873Z,7.07
2024-02-08T13:16:00.549Z,8.25
2024-02-08T13:18:31.035Z,7.20
2024-02-08T13:21:05.189Z,9.30
2024-02-08T13:23:38.219Z,7.78
2024-02-08T13:26:16.257Z,7.03
2024-02-08T13:28:52.422Z,7.82
2024-02-08T13:31:21.035Z,8.00
2024-02-08T13:33:48.091Z,7.65
2024-02-08T13:36:18.136Z,8.32
2024-02-08T13:38:46.346Z,7.70
2024-02-08T13:41:15.035Z,8.10
2024-02-08T13:43:47.405Z,9.13
2024-02-08T13:46:16.353Z,6.95
2024-02-08T13:48:44.018Z,8.20
2024-02-08T13:51:12.690Z,7.85
2024-02-08T13:53:43.112Z,8.18
2024-02-08T13:56:13.558Z,8.38
2024-02-08T13:58:41.140Z,7.97
2024-02-08T14:01:10.991Z,7.13
2024-02-08T14:03:38.693Z,9.20
2024-02-08T14:06:12.297Z,7.95
2024-02-08T14:08:44.557Z,8.05
2024-02-08T14:11:18.158Z,6.55
2024-02-08T14:13:46.296Z,9.32
2024-02-08T14:16:17.831Z,9.23
2024-02-08T14:18:54.485Z,7.85
2024-02-08T14:21:26.802Z,7.70
2024-02-08T14:24:01.391Z,8.20
2024-02-08T14:26:38.722Z,10.18
2024-02-08T14:29:10.619Z,7.93
2024-02-08T14:31:42.921Z,8.23
2024-02-08T14:34:12.943Z,10.32
2024-02-08T14:36:49.742Z,8.82
2024-02-08T14:39:30.973Z,8.93
2024-02-08T14:42:13.196Z,9.00
2024-02-08T14:44:46.493Z,8.15
2024-02-08T14:47:32.575Z,9.82
2024-02-08T14:50:18.841Z,6.65
2024-02-08T14:52:50.992Z,6.32
2024-02-08T14:55:24.273Z,6.53
2024-02-08T14:57:54.384Z,8.20
2024-02-08T15:00:34.261Z,6.88
2024-02-08T15:03:23.329Z,7.30
2024-02-08T15:06:01.548Z,8.38
2024-02-08T15:08:28.974Z,9.90
2024-02-08T15:11:12.515Z,8.93
2024-02-08T15:13:48.149Z,8.13
2024-02-08T15:16:31.844Z,9.25
2024-02-08T15:18:59.755Z,8.50
2024-02-08T15:21:27.125Z,9.13
2024-02-08T15:24:16.072Z,9.60
2024-02-08T15:26:53.396Z,9.63
2024-02-08T15:29:46.719Z,11.60
2024-02-08T15:32:32.329Z,9.68
2024-02-08T15:34:59.647Z,10.75
2024-02-08T15:37:33.178Z,9.15
2024-02-08T15:40:19.445Z,9.85
2024-02-08T15:42:51.054Z,7.93
2024-02-08T15:45:22.830Z,9.20
2024-02-08T15:48:13.323Z,7.15
2024-02-08T15:50:44.082Z,8.90
2024-02-08T15:53:21.426Z,6.65
2024-02-08T15:55:51.784Z,6.85
2024-02-08T15:58:21.456Z,7.15
2024-02-08T16:01:16.374Z,6.93
2024-02-08T16:04:02.477Z,8.10
2024-02-08T16:06:41.747Z,8.93
2024-02-08T16:09:28.872Z,6.88
2024-02-08T16:12:24.000Z,7.63
2024-02-08T16:15:12.332Z,7.00
2024-02-08T16:17:40.965Z,6.65
2024-02-08T16:20:16.937Z,6.85
2024-02-08T16:23:10.794Z,6.75
2024-02-08T16:25:49.582Z,7.60
2024-02-08T16:28:24.916Z,9.35
2024-02-08T16:31:00.698Z,8.45
2024-02-08T16:33:35.141Z,7.35
2024-02-08T16:36:12.566Z,7.72
2024-02-08T16:38:47.917Z,8.50
2024-02-08T16:41:16.162Z,6.82
2024-02-08T16:43:45.482Z,6.97
2024-02-08T16:46:23.389Z,6.10
2024-02-08T16:48:54.955Z,7.28
2024-02-08T16:51:27.965Z,8.85
2024-02-08T16:54:03.165Z,8.05
2024-02-08T16:56:41.411Z,7.53
2024-02-08T16:59:16.305Z,8.05
2024-02-08T17:02:03.932Z,7.20
2024-02-08T17:05:00.133Z,7.07
2024-02-08T17:07:47.762Z,7.97
2024-02-08T17:10:37.838Z,8.52
2024-02-08T17:13:17.918Z,9.30
2024-02-08T17:16:01.762Z,11.30
2024-02-08T17:18:46.888Z,7.75
2024-02-08T17:21:38.703Z,8.20
2024-02-08T17:24:09.924Z,8.48
2024-02-08T17:26:37.395Z,8.30
2024-02-08T17:29:20.409Z,9.32
2024-02-08T17:31:52.334Z,12.65
2024-02-08T17:34:29.637Z,8.15
2024-02-08T17:36:56.681Z,8.55
2024-02-08T17:39:26.742Z,9.93
2024-02-08T17:41:54.171Z,10.43
2024-02-08T17:44:20.998Z,7.78
2024-02-08T17:46:54.571Z,8.15
2024-02-08T17:49:21.843Z,8.57
2024-02-08T17:51:51.134Z,8.65
2024-02-08T17:54:33.178Z,7.97
2024-02-08T17:57:03.248Z,7.95
2024-02-08T17:59:30.759Z,8.27
2024-02-08T18:02:05.473Z,6.82
2024-02-08T18:04:32.619Z,5.63
2024-02-08T18:07:10.205Z,5.70
2024-02-08T18:09:41.508Z,7.18
2024-02-08T18:12:14.728Z,6.78
2024-02-08T18:15:26.191Z,8.93
2024-02-08T18:18:06.172Z,6.88
2024-02-08T18:20:35.193Z,8.90
2024-02-08T18:23:04.306Z,8.13
2024-02-08T18:25:32.110Z,8.02
2024-02-08T18:28:07.372Z,6.22
2024-02-08T18:30:37.402Z,5.93
2024-02-08T18:33:06.221Z,7.32
2024-02-08T18:35:34.869Z,8.43
2024-02-08T18:38:09.374Z,14.70
2024-02-08T18:40:38.030Z,8.82
2024-02-08T18:43:06.198Z,7.50
2024-02-08T18:45:43.095Z,8.95
2024-02-08T18:48:15.398Z,8.20
2024-02-08T18:50:50.285Z,8.05
2024-02-08T18:53:20.197Z,7.07
2024-02-08T18:55:52.692Z,8.55
2024-02-08T18:58:20.457Z,10.75
2024-02-08T19:00:51.242Z,14.75
2024-02-08T19:03:21.238Z,9.85
2024-02-08T19:05:49.627Z,14.02
2024-02-08T19:08:21.513Z,10.52
2024-02-08T19:11:01.520Z,11.73
2024-02-08T19:13:32.705Z,12.10
2024-02-08T19:16:13.968Z,16.63
2024-02-08T19:21:39.133Z,10.57
2024-02-08T19:26:44.000Z,13.10
2024-02-08T19:29:18.647Z,10.45
2024-02-08T19:31:47.581Z,9.55
2024-02-08T19:34:23.362Z,9.60
2024-02-08T19:36:54.348Z,8.63
2024-02-08T19:42:20.028Z,8.75
2024-02-08T19:44:53.884Z,9.80
2024-02-08T19:47:30.150Z,9.45
2024-02-08T19:50:07.211Z,9.27
2024-02-08T19:52:46.097Z,10.20
2024-02-08T19:55:22.738Z,9.85
2024-02-08T19:57:52.005Z,14.38
2024-02-08T20:00:22.590Z,13.02
2024-02-08T20:02:53.516Z,10.63
2024-02-08T20:05:24.198Z,10.18
2024-02-08T20:10:20.724Z,11.98
2024-02-08T20:12:50.252Z,11.27
2024-02-08T20:15:22.337Z,11.82
2024-02-08T20:17:54.597Z,11.30
2024-02-08T20:20:23.282Z,10.80
2024-02-08T20:22:55.347Z,11.18
2024-02-08T20:25:28.547Z,11.43
2024-02-08T20:28:00.452Z,11.32
2024-02-08T20:30:29.765Z,10.30
2024-02-08T20:33:00.652Z,9.32
2024-02-08T20:35:33.432Z,9.45
2024-02-08T20:38:01.122Z,8.80
2024-02-08T20:40:29.469Z,8.27
2024-02-08T20:43:02.183Z,9.85
2024-02-08T20:45:29.001Z,7.75
2024-02-08T20:47:55.995Z,6.80
2024-02-08T20:50:24.398Z,8.63
2024-02-08T20:52:51.377Z,7.82
2024-02-08T20:55:36.524Z,7.85
2024-02-08T20:58:05.874Z,6.90
2024-02-08T21:00:32.981Z,10.38
2024-02-08T21:03:03.262Z,13.85
2024-02-08T21:05:31.228Z,13.82
2024-02-08T21:07:58.760Z,7.22
2024-02-08T21:10:29.739Z,5.97
2024-02-08T21:15:27.144Z,6.35
2024-02-08T21:17:54.516Z,9.32
2024-02-08T21:20:22.110Z,7.63
2024-02-08T21:22:49.006Z,8.98
2024-02-08T21:25:21.439Z,13.75
2024-02-08T21:27:53.934Z,9.52
2024-02-08T21:30:22.245Z,10.73
2024-02-08T21:32:50.025Z,10.23
2024-02-08T21:35:18.159Z,7.50
2024-02-08T21:37:46.643Z,8.63
2024-02-08T21:40:14.531Z,8.05
2024-02-08T21:42:41.302Z,6.65
2024-02-08T21:45:13.547Z,6.90
2024-02-08T21:47:40.663Z,6.60
2024-02-08T21:50:08.968Z,5.57
2024-02-08T21:52:39.455Z,5.38
2024-02-08T21:55:08.230Z,5.37
2024-02-08T21:57:37.171Z,4.97
2024-02-08T22:00:12.665Z,5.55
2024-02-08T22:02:41.217Z,4.93
2024-02-08T22:05:12.696Z,5.20
2024-02-08T22:07:41.400Z,5.97
2024-02-08T22:10:13.187Z,4.60
2024-02-08T22:12:46.232Z,5.55
2024-02-08T22:15:19.192Z,7.13
2024-02-08T22:17:55.711Z,5.35
2024-02-08T22:20:25.793Z,4.97
2024-02-08T22:22:52.575Z,5.83
2024-02-08T22:25:19.606Z,5.05
2024-02-08T22:27:46.340Z,4.95
2024-02-08T22:30:14.308Z,4.95
2024-02-08T22:32:47.273Z,6.50
2024-02-08T22:35:16.898Z,5.30
2024-02-08T22:37:44.014Z,4.95
2024-02-08T22:40:11.253Z,6.10
2024-02-08T22:42:38.227Z,4.97
2024-02-08T22:45:12.721Z,6.15
2024-02-08T22:47:40.688Z,5.30
2024-02-08T22:50:14.660Z,5.63
2024-02-08T22:52:45.425Z,6.22
2024-02-08T22:55:18.076Z,8.55
2024-02-08T22:57:49.222Z,5.53
2024-02-08T23:03:07.977Z,5.25
2024-02-08T23:05:42.985Z,4.95
2024-02-08T23:08:16.201Z,5.10
2024-02-08T23:10:46.034Z,5.25
2024-02-08T23:13:13.547Z,4.40
2024-02-08T23:15:47.120Z,5.25
2024-02-08T23:18:35.107Z,5.05
2024-02-08T23:21:01.807Z,4.15
2024-02-08T23:23:30.020Z,5.20
2024-02-08T23:25:56.684Z,4.85
2024-02-08T23:28:23.428Z,5.05
2024-02-08T23:30:50.177Z,3.95
2024-02-08T23:33:19.804Z,4.85
2024-02-08T23:35:49.324Z,4.32
2024-02-08T23:38:20.003Z,5.57
2024-02-08T23:43:15.982Z,4.07
2024-02-08T23:45:42.890Z,3.78
2024-02-08T23:48:10.494Z,3.75
2024-02-08T23:50:37.732Z,3.85
2024-02-08T23:53:05.556Z,4.22
2024-02-08T23:55:36.387Z,5.13
